| time (UTC) | temp F | wind direction | speed knots | gust knots | rain 1hr in | rain 24hr in | rain mn in | humidity % | barometer mb |
| 20260507005754 | 59 | 0.0 | 0.0 | 0.00 | 0.00 | 0.00 | 10 | -203.9 | |
| 20260507004754 | 60 | 0.0 | 0.0 | 0.00 | 0.00 | 0.00 | 10 | -204.0 | |
| 20260507003754 | 59 | 0.0 | 0.0 | 0.00 | 0.00 | 0.00 | 10 | -204.0 | |
| 20260507002754 | 59 | 0.0 | 0.0 | 0.00 | 0.00 | 0.00 | 10 | -204.0 | |
| 20260507001754 | 60 | 0.0 | 0.0 | 0.00 | 0.00 | 0.00 | 10 | -204.1 | |
| 20260507000754 | 60 | 0.0 | 0.0 | 0.00 | 0.00 | 0.00 | 10 | -204.1 | |
| 20260506235754 | 60 | 0.0 | 0.0 | 0.00 | 0.00 | 0.00 | 10 | -204.1 | |
| 20260506234755 | 60 | 0.0 | 0.0 | 0.00 | 0.00 | 0.00 | 10 | -204.1 | |
| 20260506233754 | 60 | 0.0 | 0.0 | 0.00 | 0.00 | 0.00 | 10 | -204.0 | |
| 20260506232754 | 60 | 0.0 | 0.0 | 0.00 | 0.00 | 0.00 | 10 | -204.1 | |
| 20260506231754 | 60 | 0.0 | 0.0 | 0.00 | 0.00 | 0.00 | 10 | -204.1 | |
| 20260506230754 | 59 | 0.0 | 0.0 | 0.00 | 0.00 | 0.00 | 10 | -204.0 | |
| 20260506225754 | 59 | 0.0 | 0.0 | 0.00 | 0.00 | 0.00 | 10 | -204.0 | |
| 20260506224754 | 60 | 0.0 | 0.0 | 0.00 | 0.00 | 0.00 | 10 | -204.1 | |
| 20260506223754 | 60 | 0.0 | 0.0 | 0.00 | 0.00 | 0.00 | 10 | -204.0 | |
| 20260506221754 | 60 | 0.0 | 0.0 | 0.00 | 0.00 | 0.00 | 10 | -204.1 | |
| 20260506220754 | 60 | 0.0 | 0.0 | 0.00 | 0.00 | 0.00 | 10 | -204.1 | |
| 20260506215755 | 59 | 0.0 | 0.0 | 0.00 | 0.00 | 0.00 | 10 | -204.0 | |
| 20260506214754 | 59 | 0.0 | 0.0 | 0.00 | 0.00 | 0.00 | 10 | -203.9 | |
| 20260506213754 | 59 | 0.0 | 0.0 | 0.00 | 0.00 | 0.00 | 10 | -203.9 | |
| 20260506212754 | 59 | 0.0 | 0.0 | 0.00 | 0.00 | 0.00 | 10 | -203.9 | |
| 20260506211754 | 59 | 0.0 | 0.0 | 0.00 | 0.00 | 0.00 | 10 | -203.9 | |
| 20260506210754 | 59 | 0.0 | 0.0 | 0.00 | 0.00 | 0.00 | 10 | -203.9 | |
| 20260506205754 | 59 | 0.0 | 0.0 | 0.00 | 0.00 | 0.00 | 10 | -203.9 | |
| 20260506204754 | 59 | 0.0 | 0.0 | 0.00 | 0.00 | 0.00 | 10 | -203.9 | |
| 20260506203754 | 60 | 0.0 | 0.0 | 0.00 | 0.00 | 0.00 | 10 | -204.1 | |
| 20260506202754 | 60 | 0.0 | 0.0 | 0.00 | 0.00 | 0.00 | 10 | -204.1 | |
| 20260506201754 | 60 | 0.0 | 0.0 | 0.00 | 0.00 | 0.00 | 10 | -204.1 | |
| 20260506200754 | 61 | 0.0 | 0.0 | 0.00 | 0.00 | 0.00 | 10 | -204.3 | |
| 20260506195754 | 61 | 0.0 | 0.0 | 0.00 | 0.00 | 0.00 | 10 | -204.2 | |
| 20260506194754 | 61 | 0.0 | 0.0 | 0.00 | 0.00 | 0.00 | 10 | -204.3 | |
| 20260506193754 | 61 | 0.0 | 0.0 | 0.00 | 0.00 | 0.00 | 10 | -204.3 | |
| 20260506192755 | 62 | 0.0 | 0.0 | 0.00 | 0.00 | 0.00 | 10 | -204.4 | |
| 20260506191754 | 63 | 0.0 | 0.0 | 0.00 | 0.00 | 0.00 | 10 | -204.5 | |
| 20260506190755 | 63 | 0.0 | 0.0 | 0.00 | 0.00 | 0.00 | 10 | -204.5 | |
| 20260506185754 | 63 | 0.0 | 0.0 | 0.00 | 0.00 | 0.00 | 10 | -204.6 | |
| 20260506184754 | 63 | 0.0 | 0.0 | 0.00 | 0.00 | 0.00 | 10 | -204.6 | |
| 20260506183754 | 63 | 0.0 | 0.0 | 0.00 | 0.00 | 0.00 | 10 | -204.6 | |
| 20260506182754 | 63 | 0.0 | 0.0 | 0.00 | 0.00 | 0.00 | 10 | -204.5 | |
| 20260506181754 | 64 | 0.0 | 0.0 | 0.00 | 0.00 | 0.00 | 10 | -204.7 | |
| 20260506180754 | 64 | 0.0 | 0.0 | 0.00 | 0.00 | 0.00 | 10 | -204.7 | |
| 20260506175754 | 63 | 0.0 | 0.0 | 0.00 | 0.00 | 0.00 | 10 | -204.5 | |
| 20260506174753 | 64 | 0.0 | 0.0 | 0.00 | 0.00 | 0.00 | 10 | -204.7 | |
| 20260506173753 | 64 | 0.0 | 0.0 | 0.00 | 0.00 | 0.00 | 10 | -204.7 | |
| 20260506172753 | 64 | 0.0 | 0.0 | 0.00 | 0.00 | 0.00 | 10 | -204.8 | |
| 20260506171753 | 64 | 0.0 | 0.0 | 0.00 | 0.00 | 0.00 | 10 | -204.8 | |
| 20260506170753 | 65 | 0.0 | 0.0 | 0.00 | 0.00 | 0.00 | 10 | -204.8 | |
| 20260506165753 | 64 | 0.0 | 0.0 | 0.00 | 0.00 | 0.00 | 10 | -204.8 | |
| 20260506164753 | 65 | 0.0 | 0.0 | 0.00 | 0.00 | 0.00 | 10 | -204.9 | |
| 20260506163753 | 67 | 0.0 | 0.0 | 0.00 | 0.00 | 0.00 | 10 | -205.2 | |
| 20260506162753 | 69 | 0.0 | 0.0 | 0.00 | 0.00 | 0.00 | 10 | -205.5 | |
| 20260506161753 | 69 | 0.0 | 0.0 | 0.00 | 0.00 | 0.00 | 10 | -205.5 | |
| 20260506160753 | 68 | 0.0 | 0.0 | 0.00 | 0.00 | 0.00 | 10 | -205.4 | |
| 20260506155753 | 69 | 0.0 | 0.0 | 0.00 | 0.00 | 0.00 | 10 | -205.5 | |
| 20260506154753 | 70 | 0.0 | 0.0 | 0.00 | 0.00 | 0.00 | 10 | -205.6 | |
| 20260506153753 | 71 | 0.0 | 0.0 | 0.00 | 0.00 | 0.00 | 10 | -205.9 | |
| 20260506152753 | 71 | 0.0 | 0.0 | 0.00 | 0.00 | 0.00 | 10 | -205.9 | |
| 20260506151753 | 72 | 0.0 | 0.0 | 0.00 | 0.00 | 0.00 | 10 | -206.1 | |
| 20260506150753 | 73 | 0.0 | 0.0 | 0.00 | 0.00 | 0.00 | 10 | -206.2 | |
| 20260506145753 | 74 | 0.0 | 0.0 | 0.00 | 0.00 | 0.00 | 10 | -206.3 | |
| 20260506144753 | 74 | 0.0 | 0.0 | 0.00 | 0.00 | 0.00 | 10 | -206.3 | |
| 20260506143753 | 74 | 0.0 | 0.0 | 0.00 | 0.00 | 0.00 | 10 | -206.2 | |
| 20260506142753 | 74 | 0.0 | 0.0 | 0.00 | 0.00 | 0.00 | 10 | -206.3 | |
| 20260506141753 | 75 | 0.0 | 0.0 | 0.00 | 0.00 | 0.00 | 10 | -206.4 | |
| 20260506140753 | 76 | 0.0 | 0.0 | 0.00 | 0.00 | 0.00 | 10 | -206.7 | |
| 20260506135753 | 80 | 0.0 | 0.0 | 0.00 | 0.00 | 0.00 | 10 | -207.2 | |
| 20260506134753 | 81 | 0.0 | 0.0 | 0.00 | 0.00 | 0.00 | 10 | -207.3 | |
| 20260506133753 | 78 | 0.0 | 0.0 | 0.00 | 0.00 | 0.00 | 10 | -206.9 | |
| 20260506132753 | 80 | 0.0 | 0.0 | 0.00 | 0.00 | 0.00 | 10 | -207.3 | |
| 20260506131753 | 83 | 0.0 | 0.0 | 0.00 | 0.00 | 0.00 | 10 | -207.6 | |
| 20260506130753 | 78 | 0.0 | 0.0 | 0.00 | 0.00 | 0.00 | 10 | -207.0 | |
| 20260506125753 | 80 | 0.0 | 0.0 | 0.00 | 0.00 | 0.00 | 10 | -207.2 | |
| 20260506124753 | 83 | 0.0 | 0.0 | 0.00 | 0.00 | 0.00 | 10 | -207.7 | |
| 20260506123753 | 85 | 0.0 | 0.0 | 0.00 | 0.00 | 0.00 | 10 | -208.0 | |
| 20260506122753 | 84 | 0.0 | 0.0 | 0.00 | 0.00 | 0.00 | 10 | -207.9 | |
| 20260506121753 | 80 | 0.0 | 0.0 | 0.00 | 0.00 | 0.00 | 10 | -207.3 | |
| 20260506120753 | 82 | 0.0 | 0.0 | 0.00 | 0.00 | 0.00 | 10 | -207.6 | |
| 20260506115753 | 80 | 0.0 | 0.0 | 0.00 | 0.00 | 0.00 | 10 | -207.3 | |
| 20260506114753 | 81 | 0.0 | 0.0 | 0.00 | 0.00 | 0.00 | 10 | -207.5 | |
| 20260506113753 | 82 | 0.0 | 0.0 | 0.00 | 0.00 | 0.00 | 10 | -207.6 | |
| 20260506112753 | 77 | 0.0 | 0.0 | 0.00 | 0.00 | 0.00 | 10 | -206.7 | |
| 20260506111753 | 76 | 0.0 | 0.0 | 0.00 | 0.00 | 0.00 | 10 | -206.7 | |
| 20260506110752 | 80 | 0.0 | 0.0 | 0.00 | 0.00 | 0.00 | 10 | -207.2 | |
| 20260506105752 | 82 | 0.0 | 0.0 | 0.00 | 0.00 | 0.00 | 10 | -207.5 | |
| 20260506104752 | 81 | 0.0 | 0.0 | 0.00 | 0.00 | 0.00 | 10 | -207.5 | |
| 20260506103752 | 79 | 0.0 | 0.0 | 0.00 | 0.00 | 0.00 | 10 | -207.1 | |
| 20260506102752 | 79 | 0.0 | 0.0 | 0.00 | 0.00 | 0.00 | 10 | -207.1 | |
| 20260506101752 | 78 | 0.0 | 0.0 | 0.00 | 0.00 | 0.00 | 10 | -207.0 | |
| 20260506100752 | 77 | 0.0 | 0.0 | 0.00 | 0.00 | 0.00 | 10 | -206.7 | |
| 20260506095752 | 75 | 0.0 | 0.0 | 0.00 | 0.00 | 0.00 | 10 | -206.4 | |
| 20260506094752 | 75 | 0.0 | 0.0 | 0.00 | 0.00 | 0.00 | 10 | -206.5 | |
| 20260506093752 | 77 | 0.0 | 0.0 | 0.00 | 0.00 | 0.00 | 10 | -206.8 | |
| 20260506092752 | 77 | 0.0 | 0.0 | 0.00 | 0.00 | 0.00 | 10 | -206.8 | |
| 20260506091752 | 78 | 0.0 | 0.0 | 0.00 | 0.00 | 0.00 | 10 | -206.9 | |
| 20260506090752 | 76 | 0.0 | 0.0 | 0.00 | 0.00 | 0.00 | 10 | -206.7 | |
| 20260506085752 | 73 | 0.0 | 0.0 | 0.00 | 0.00 | 0.00 | 10 | -206.1 | |
| 20260506084752 | 73 | 0.0 | 0.0 | 0.00 | 0.00 | 0.00 | 10 | -206.1 | |
| 20260506083752 | 70 | 0.0 | 0.0 | 0.00 | 0.00 | 0.00 | 10 | -205.7 | |
| 20260506082752 | 70 | 0.0 | 0.0 | 0.00 | 0.00 | 0.00 | 10 | -205.7 | |
| 20260506081752 | 69 | 0.0 | 0.0 | 0.00 | 0.00 | 0.00 | 10 | -205.5 | |
| 20260506080752 | 69 | 0.0 | 0.0 | 0.00 | 0.00 | 0.00 | 10 | -205.5 | |
| 20260506072753 | 67 | 0.0 | 0.0 | 0.00 | 0.00 | 0.00 | 10 | -205.1 | |
| 20260506071752 | 66 | 0.0 | 0.0 | 0.00 | 0.00 | 0.00 | 10 | -205.1 | |
| 20260506070752 | 65 | 0.0 | 0.0 | 0.00 | 0.00 | 0.00 | 10 | -204.8 | |
| 20260506061752 | 61 | 0.0 | 0.0 | 0.00 | 0.00 | 0.00 | 10 | -204.2 | |
| 20260506050752 | 54 | 0.0 | 0.0 | 0.00 | 0.00 | 0.00 | 10 | -203.2 | |
| 20260506044752 | 53 | 0.0 | 0.0 | 0.00 | 0.00 | 0.00 | 10 | -203.0 | |
| 20260506043752 | 53 | 0.0 | 0.0 | 0.00 | 0.00 | 0.00 | 10 | -202.9 | |
| 20260506042752 | 53 | 0.0 | 0.0 | 0.00 | 0.00 | 0.00 | 10 | -203.0 | |
| 20260506041752 | 53 | 0.0 | 0.0 | 0.00 | 0.00 | 0.00 | 10 | -203.0 | |
| 20260506040752 | 52 | 0.0 | 0.0 | 0.00 | 0.00 | 0.00 | 10 | -202.9 | |
| 20260506035751 | 52 | 0.0 | 0.0 | 0.00 | 0.00 | 0.00 | 10 | -202.8 | |
| 20260506034751 | 52 | 0.0 | 0.0 | 0.00 | 0.00 | 0.00 | 10 | -202.7 | |
| 20260506033751 | 51 | 0.0 | 0.0 | 0.00 | 0.00 | 0.00 | 10 | -202.7 | |
| 20260506032751 | 51 | 0.0 | 0.0 | 0.00 | 0.00 | 0.00 | 10 | -202.6 | |
| 20260506031751 | 51 | 0.0 | 0.0 | 0.00 | 0.00 | 0.00 | 10 | -202.6 | |
| 20260506030751 | 51 | 0.0 | 0.0 | 0.00 | 0.00 | 0.00 | 10 | -202.6 | |
| 20260506025751 | 51 | 0.0 | 0.0 | 0.00 | 0.00 | 0.00 | 10 | -202.6 | |
| 20260506024751 | 51 | 0.0 | 0.0 | 0.00 | 0.00 | 0.00 | 10 | -202.7 | |
| 20260506023751 | 51 | 0.0 | 0.0 | 0.00 | 0.00 | 0.00 | 10 | -202.6 | |
| 20260506022751 | 51 | 0.0 | 0.0 | 0.00 | 0.00 | 0.00 | 10 | -202.6 | |
| 20260506021751 | 50 | 0.0 | 0.0 | 0.00 | 0.00 | 0.00 | 10 | -202.5 | |
| 20260506020751 | 49 | 0.0 | 0.0 | 0.00 | 0.00 | 0.00 | 10 | -202.4 | |
| 20260506015751 | 51 | 0.0 | 0.0 | 0.00 | 0.00 | 0.00 | 10 | -202.6 | |
| 20260506014751 | 51 | 0.0 | 0.0 | 0.00 | 0.00 | 0.00 | 10 | -202.6 | |
| 20260506013751 | 51 | 0.0 | 0.0 | 0.00 | 0.00 | 0.00 | 10 | -202.6 | |
| 20260506012751 | 50 | 0.0 | 0.0 | 0.00 | 0.00 | 0.00 | 10 | -202.5 | |
| 20260506011751 | 51 | 0.0 | 0.0 | 0.00 | 0.00 | 0.00 | 10 | -202.7 | |
| 20260506010751 | 50 | 0.0 | 0.0 | 0.00 | 0.00 | 0.00 | 10 | -202.6 |